メインページ
METAR-TAF:

METAR-TAF

空港 :

イーラーム, イラン

緯度: 33-35-09N, 経度: 046-24-20E, 海抜: 1334m

現時点の気象観測

当レポートは46分前の18:00(UTC)に作成
無風
気温 20°C
湿度 18%
気圧 1022 hPa
視程10km以上
1,500メートル以下は雲なし、積乱雲なし

METAR: OICI 261800Z 00000KT CAVOK 20/M05 Q1022 A3019

時間: 23:16 (18:46 UTC)

予報

当レポートは7時間46分前の11:00(UTC)に作成
予報は26日の 12時(UTC)から 27日の 18時(UTC)まで有効
西/南西の風 8kt
視程: 8000m
26日の 12時(UTC)から 26日の 16時(UTC)まで一時的に
西/南西の風 16kt

TAF: OICI 261100Z 2612/2718 24008KT 8000 NSC TEMPO 2612/2616 24016KT

4,000以上の空港の気象観測と天気予報(METAR報とTAF報)

利用可能な観測所は地図上に黄色い丸と赤い丸で示す。

丸の上にカーソルを重ねると観測所名を参照できる。

次にクリックすると気象観測と天気予報を参照できる。

マップの切り替え:黒色「×」印の緑ボタンをクリックして拡大、「-」印の緑ボタンをクリックして縮小、緑色の三角印をクリックして隣りの地図に切り替え


METAR-TAF: